createdAt,value
2019-02-06T00:02:15.072Z,101767.00
2019-02-06T00:05:16.184Z,101772.00
2019-02-06T00:07:49.805Z,101775.00
2019-02-06T00:10:21.318Z,101772.00
2019-02-06T00:13:08.874Z,101769.00
2019-02-06T00:15:40.610Z,101767.00
2019-02-06T00:18:12.477Z,101765.00
2019-02-06T00:20:44.085Z,101767.00
2019-02-06T00:23:15.710Z,101771.00
2019-02-06T00:25:47.336Z,101766.00
2019-02-06T00:28:18.951Z,101756.00
2019-02-06T00:30:50.931Z,101755.00
2019-02-06T00:33:23.085Z,101756.00
2019-02-06T00:35:54.568Z,101752.00
2019-02-06T00:38:26.021Z,101758.00
2019-02-06T00:40:57.488Z,101758.00
2019-02-06T00:43:29.194Z,101754.00
2019-02-06T00:46:01.161Z,101753.00
2019-02-06T00:48:32.713Z,101752.00
2019-02-06T00:51:04.188Z,101746.00
2019-02-06T00:53:35.632Z,101753.00
2019-02-06T00:56:07.429Z,101755.00
2019-02-06T00:58:38.926Z,101750.00
2019-02-06T01:01:10.542Z,101752.00
2019-02-06T01:03:41.980Z,101755.00
2019-02-06T01:06:13.561Z,101741.00
2019-02-06T01:08:45.483Z,101748.00
2019-02-06T01:11:17.019Z,101743.00
2019-02-06T01:13:48.572Z,101741.00
2019-02-06T01:16:20.141Z,101743.00
2019-02-06T01:18:51.725Z,101756.00
2019-02-06T01:21:23.276Z,101752.00
2019-02-06T01:23:54.824Z,101754.00
2019-02-06T01:26:26.333Z,101745.00
2019-02-06T01:28:58.197Z,101746.00
2019-02-06T01:31:33.502Z,101750.00
2019-02-06T01:34:04.962Z,101738.00
2019-02-06T01:36:36.549Z,101733.00
2019-02-06T01:39:14.636Z,101732.00
2019-02-06T01:41:46.097Z,101737.00
2019-02-06T01:44:17.538Z,101739.00
2019-02-06T01:46:49.375Z,101736.00
2019-02-06T01:49:20.828Z,101753.00
2019-02-06T01:51:52.435Z,101744.00
2019-02-06T01:54:23.982Z,101732.00
2019-02-06T01:56:55.587Z,101738.00
2019-02-06T01:59:27.161Z,101724.00
2019-02-06T02:01:58.687Z,101723.00
2019-02-06T02:04:30.143Z,101716.00
2019-02-06T02:07:01.652Z,101728.00
2019-02-06T02:09:34.271Z,101723.00
2019-02-06T02:12:05.949Z,101724.00
2019-02-06T02:14:37.487Z,101715.00
2019-02-06T02:17:10.066Z,101710.00
2019-02-06T02:19:41.621Z,101708.00
2019-02-06T02:22:13.113Z,101709.00
2019-02-06T02:24:45.137Z,101702.00
2019-02-06T02:27:16.617Z,101688.00
2019-02-06T02:29:48.128Z,101690.00
2019-02-06T02:32:25.727Z,101691.00
2019-02-06T02:34:57.239Z,101685.00
2019-02-06T02:37:29.115Z,101681.00
2019-02-06T02:40:00.570Z,101695.00
2019-02-06T02:42:32.244Z,101678.00
2019-02-06T02:45:03.739Z,101671.00
2019-02-06T02:47:35.500Z,101657.00
2019-02-06T02:50:09.242Z,101664.00
2019-02-06T02:52:40.723Z,101660.00
2019-02-06T02:55:12.794Z,101662.00
2019-02-06T02:57:46.834Z,101661.00
2019-02-06T03:00:20.540Z,101650.00
2019-02-06T03:03:10.958Z,101657.00
2019-02-06T03:05:42.407Z,101641.00
2019-02-06T03:08:13.905Z,101656.00
2019-02-06T03:10:45.846Z,101662.00
2019-02-06T03:13:17.343Z,101651.00
2019-02-06T03:15:48.819Z,101651.00
2019-02-06T03:18:21.877Z,101643.00
2019-02-06T03:20:53.372Z,101621.00
2019-02-06T03:23:24.829Z,101620.00
2019-02-06T03:25:56.330Z,101616.00
2019-02-06T03:28:27.848Z,101609.00
2019-02-06T03:30:59.286Z,101608.00
2019-02-06T03:33:30.749Z,101612.00
2019-02-06T03:36:02.182Z,101607.00
2019-02-06T03:38:33.765Z,101612.00
2019-02-06T03:41:06.208Z,101607.00
2019-02-06T03:43:37.678Z,101600.00
2019-02-06T03:46:10.206Z,101590.00
2019-02-06T03:48:41.847Z,101594.00
2019-02-06T03:51:15.449Z,101594.00
2019-02-06T03:53:46.950Z,101588.00
2019-02-06T03:56:18.472Z,101579.00
2019-02-06T03:58:49.975Z,101580.00
2019-02-06T04:01:21.409Z,101573.00
2019-02-06T04:03:52.917Z,101574.00
2019-02-06T04:06:24.360Z,101569.00
2019-02-06T04:08:56.290Z,101564.00
2019-02-06T04:11:28.858Z,101564.00
2019-02-06T04:14:00.354Z,101557.00
2019-02-06T04:16:31.817Z,101559.00
2019-02-06T04:19:03.337Z,101556.00
2019-02-06T04:21:34.800Z,101539.00
2019-02-06T04:24:06.356Z,101552.00
2019-02-06T04:26:37.780Z,101546.00
2019-02-06T04:29:09.237Z,101535.00
2019-02-06T04:31:40.712Z,101525.00
2019-02-06T04:34:12.170Z,101519.00
2019-02-06T04:36:46.096Z,101518.00
2019-02-06T04:39:17.541Z,101499.00
2019-02-06T04:41:48.994Z,101499.00
2019-02-06T04:44:20.624Z,101497.00
2019-02-06T04:46:52.095Z,101496.00
2019-02-06T04:49:23.712Z,101506.00
2019-02-06T04:51:55.219Z,101502.00
2019-02-06T04:54:29.184Z,101508.00
2019-02-06T04:57:00.639Z,101494.00
2019-02-06T04:59:32.197Z,101493.00
2019-02-06T05:02:03.808Z,101482.00
2019-02-06T05:04:36.240Z,101465.00
2019-02-06T05:07:18.848Z,101454.00
2019-02-06T05:09:40.810Z,101450.00
2019-02-06T05:12:12.248Z,101463.00
2019-02-06T05:14:43.719Z,101454.00
2019-02-06T05:17:15.178Z,101448.00
2019-02-06T05:19:50.496Z,101452.00
2019-02-06T05:22:21.905Z,101451.00
2019-02-06T05:24:54.512Z,101451.00
2019-02-06T05:27:27.346Z,101447.00
2019-02-06T05:29:58.896Z,101448.00
2019-02-06T05:32:30.397Z,101441.00
2019-02-06T05:35:01.930Z,101441.00
2019-02-06T05:37:33.406Z,101436.00
2019-02-06T05:40:05.946Z,101449.00
2019-02-06T05:42:37.507Z,101447.00
2019-02-06T05:45:09.466Z,101440.00
2019-02-06T05:47:43.844Z,101436.00
2019-02-06T05:50:15.600Z,101439.00
2019-02-06T05:52:47.496Z,101421.00
2019-02-06T05:55:20.554Z,101422.00
2019-02-06T05:57:53.320Z,101423.00
2019-02-06T06:00:31.784Z,101426.00
2019-02-06T06:03:03.440Z,101429.00
2019-02-06T06:05:35.085Z,101425.00
2019-02-06T06:08:06.713Z,101430.00
2019-02-06T06:10:38.240Z,101441.00
2019-02-06T06:13:10.049Z,101432.00
2019-02-06T06:15:41.709Z,101424.00
2019-02-06T06:18:15.897Z,101424.00
2019-02-06T06:20:47.372Z,101424.00
2019-02-06T06:23:18.817Z,101421.00
2019-02-06T06:25:51.884Z,101424.00
2019-02-06T06:28:23.674Z,101432.00
2019-02-06T06:30:56.733Z,101419.00
2019-02-06T06:33:31.326Z,101418.00
2019-02-06T06:36:02.821Z,101420.00
2019-02-06T06:38:34.250Z,101418.00
2019-02-06T06:41:07.003Z,101405.00
2019-02-06T06:43:38.629Z,101409.00
2019-02-06T06:46:10.649Z,101405.00
2019-02-06T06:48:44.758Z,101405.00
2019-02-06T06:51:21.258Z,101402.00
2019-02-06T06:53:52.782Z,101402.00
2019-02-06T06:56:24.255Z,101393.00
2019-02-06T06:58:56.008Z,101392.00
2019-02-06T07:01:27.609Z,101381.00
2019-02-06T07:03:59.186Z,101379.00
2019-02-06T07:06:30.670Z,101383.00
2019-02-06T07:09:02.190Z,101381.00
2019-02-06T07:11:35.662Z,101383.00
2019-02-06T07:14:07.136Z,101375.00
2019-02-06T07:16:40.364Z,101381.00
2019-02-06T07:19:11.802Z,101378.00
2019-02-06T07:21:43.359Z,101380.00
2019-02-06T07:24:16.528Z,101371.00
2019-02-06T07:26:48.463Z,101375.00
2019-02-06T07:29:20.089Z,101380.00
2019-02-06T07:31:51.671Z,101375.00
2019-02-06T07:34:23.261Z,101368.00
2019-02-06T07:36:54.870Z,101362.00
2019-02-06T07:39:26.525Z,101369.00
2019-02-06T07:41:58.064Z,101357.00
2019-02-06T07:44:29.735Z,101355.00
2019-02-06T07:47:01.238Z,101347.00
2019-02-06T07:49:33.225Z,101361.00
2019-02-06T07:52:04.691Z,101347.00
2019-02-06T07:54:37.269Z,101343.00
2019-02-06T07:57:08.775Z,101333.00
2019-02-06T07:59:40.255Z,101332.00
2019-02-06T08:02:12.407Z,101330.00
2019-02-06T08:04:46.357Z,101327.00
2019-02-06T08:07:21.697Z,101324.00
2019-02-06T08:09:53.270Z,101326.00
2019-02-06T08:12:24.963Z,101321.00
2019-02-06T08:14:58.181Z,101327.00
2019-02-06T08:17:29.724Z,101331.00
2019-02-06T08:20:01.360Z,101329.00
2019-02-06T08:22:34.109Z,101315.00
2019-02-06T08:25:06.933Z,101318.00
2019-02-06T08:27:38.431Z,101318.00
2019-02-06T08:30:36.018Z,101315.00
2019-02-06T08:33:07.509Z,101313.00
2019-02-06T08:35:39.613Z,101306.00
2019-02-06T08:38:11.321Z,101296.00
2019-02-06T08:40:43.053Z,101297.00
2019-02-06T08:43:15.911Z,101299.00
2019-02-06T08:45:52.075Z,101287.00
2019-02-06T08:48:23.645Z,101300.00
2019-02-06T08:50:56.555Z,101308.00
2019-02-06T08:53:31.665Z,101311.00
2019-02-06T08:56:03.357Z,101310.00
2019-02-06T08:58:35.305Z,101306.00
2019-02-06T09:01:07.249Z,101305.00
2019-02-06T09:03:38.788Z,101292.00
2019-02-06T09:06:13.527Z,101283.00
2019-02-06T09:08:59.856Z,101283.00
2019-02-06T09:11:33.493Z,101283.00
2019-02-06T09:14:05.577Z,101291.00
2019-02-06T09:16:39.239Z,101292.00
2019-02-06T09:19:10.867Z,101280.00
2019-02-06T09:21:42.391Z,101279.00
2019-02-06T09:24:14.090Z,101271.00
2019-02-06T09:26:45.578Z,101260.00
2019-02-06T09:29:17.557Z,101263.00
2019-02-06T09:31:49.193Z,101268.00
2019-02-06T09:34:25.356Z,101261.00
2019-02-06T09:36:57.436Z,101262.00
2019-02-06T09:39:30.032Z,101263.00
2019-02-06T09:42:08.508Z,101251.00
2019-02-06T09:44:50.123Z,101249.00
2019-02-06T09:47:22.019Z,101241.00
2019-02-06T09:49:53.547Z,101242.00
2019-02-06T09:52:31.302Z,101234.00
2019-02-06T09:55:03.169Z,101247.00
2019-02-06T09:57:35.533Z,101242.00
2019-02-06T10:00:27.151Z,101245.00
2019-02-06T10:03:00.078Z,101245.00
2019-02-06T10:05:31.795Z,101236.00
2019-02-06T10:08:04.402Z,101244.00
2019-02-06T10:10:36.264Z,101246.00
2019-02-06T10:13:10.786Z,101251.00
2019-02-06T10:15:42.809Z,101245.00
2019-02-06T10:18:14.298Z,101242.00
2019-02-06T10:20:49.899Z,101247.00
2019-02-06T10:23:21.748Z,101243.00
2019-02-06T10:25:55.757Z,101234.00
2019-02-06T10:28:27.693Z,101233.00
2019-02-06T10:30:59.346Z,101227.00
2019-02-06T10:33:33.236Z,101228.00
2019-02-06T10:36:04.829Z,101223.00
2019-02-06T10:38:49.335Z,101211.00
2019-02-06T10:41:23.690Z,101218.00
2019-02-06T10:43:55.498Z,101213.00
2019-02-06T10:46:27.010Z,101205.00
2019-02-06T10:48:59.968Z,101203.00
2019-02-06T10:51:31.294Z,101215.00
2019-02-06T10:54:03.351Z,101203.00
2019-02-06T10:56:41.750Z,101205.00
2019-02-06T10:59:15.100Z,101193.00
2019-02-06T11:01:51.451Z,101191.00
2019-02-06T11:04:23.348Z,101189.00
2019-02-06T11:06:57.954Z,101186.00
2019-02-06T11:09:30.217Z,101184.00
2019-02-06T11:12:01.781Z,101183.00
2019-02-06T11:14:33.307Z,101185.00
2019-02-06T11:17:05.383Z,101198.00
2019-02-06T11:19:36.848Z,101197.00
2019-02-06T11:22:08.324Z,101207.00
2019-02-06T11:24:39.765Z,101207.00
2019-02-06T11:27:11.373Z,101200.00
2019-02-06T11:29:42.929Z,101203.00
2019-02-06T11:32:14.893Z,101186.00
2019-02-06T11:35:53.929Z,101188.00
2019-02-06T11:38:28.586Z,101192.00
2019-02-06T11:41:00.352Z,101191.00
2019-02-06T11:43:32.332Z,101179.00
2019-02-06T11:46:03.886Z,101180.00
2019-02-06T11:48:35.487Z,101185.00
2019-02-06T11:51:07.375Z,101182.00
2019-02-06T11:53:44.822Z,101191.00
2019-02-06T11:56:18.826Z,101191.00
2019-02-06T11:58:52.797Z,101187.00
2019-02-06T12:01:47.315Z,101180.00
2019-02-06T12:04:21.944Z,101167.00
2019-02-06T12:06:53.913Z,101175.00
2019-02-06T12:09:27.510Z,101182.00
2019-02-06T12:12:00.844Z,101178.00
2019-02-06T12:14:35.442Z,101172.00
2019-02-06T12:17:07.303Z,101171.00
2019-02-06T12:19:38.955Z,101170.00
2019-02-06T12:22:12.335Z,101167.00
2019-02-06T12:24:44.133Z,101159.00
2019-02-06T12:27:15.723Z,101150.00
2019-02-06T12:29:47.200Z,101153.00
2019-02-06T12:32:37.923Z,101152.00
2019-02-06T12:35:09.858Z,101144.00
2019-02-06T12:37:41.442Z,101143.00
2019-02-06T12:40:24.696Z,101144.00
2019-02-06T12:42:56.338Z,101141.00
2019-02-06T12:45:28.241Z,101136.00
2019-02-06T12:47:59.791Z,101126.00
2019-02-06T12:50:31.314Z,101126.00
2019-02-06T12:53:02.845Z,101130.00
2019-02-06T12:55:36.631Z,101124.00
2019-02-06T12:58:09.841Z,101125.00
2019-02-06T13:00:43.401Z,101125.00
2019-02-06T13:03:14.916Z,101126.00
2019-02-06T13:05:46.651Z,101122.00
2019-02-06T13:08:18.320Z,101123.00
2019-02-06T13:10:49.957Z,101126.00
2019-02-06T13:13:21.744Z,101128.00
2019-02-06T13:15:54.358Z,101120.00
2019-02-06T13:18:25.899Z,101109.00
2019-02-06T13:20:57.593Z,101115.00
2019-02-06T13:23:29.397Z,101102.00
2019-02-06T13:26:01.231Z,101105.00
2019-02-06T13:28:32.741Z,101099.00
2019-02-06T13:31:04.289Z,101093.00
2019-02-06T13:33:35.861Z,101084.00
2019-02-06T13:36:11.171Z,101080.00
2019-02-06T13:38:42.631Z,101087.00
2019-02-06T13:41:14.102Z,101083.00
2019-02-06T13:43:45.685Z,101088.00
2019-02-06T13:46:17.286Z,101092.00
2019-02-06T13:48:48.791Z,101093.00
2019-02-06T13:51:21.317Z,101085.00
2019-02-06T13:53:56.484Z,101081.00
2019-02-06T13:56:28.005Z,101082.00
2019-02-06T13:58:59.605Z,101091.00
2019-02-06T14:01:31.187Z,101092.00
2019-02-06T14:04:02.737Z,101085.00
2019-02-06T14:06:34.445Z,101082.00
2019-02-06T14:09:22.140Z,101076.00
2019-02-06T14:11:45.747Z,101078.00
2019-02-06T14:14:17.864Z,101078.00
2019-02-06T14:16:49.330Z,101077.00
2019-02-06T14:19:20.906Z,101070.00
2019-02-06T14:21:52.723Z,101079.00
2019-02-06T14:24:57.899Z,101069.00
2019-02-06T14:28:04.818Z,101052.00
2019-02-06T14:31:27.927Z,101065.00
2019-02-06T14:35:01.071Z,101072.00
2019-02-06T14:38:23.692Z,101059.00
2019-02-06T14:41:48.541Z,101048.00
2019-02-06T14:45:53.677Z,101049.00
2019-02-06T14:49:24.275Z,101043.00
2019-02-06T14:53:05.405Z,101051.00
2019-02-06T14:56:30.115Z,101036.00
2019-02-06T14:59:50.441Z,101036.00
2019-02-06T15:03:29.215Z,101038.00
2019-02-06T15:07:13.351Z,101037.00
2019-02-06T15:10:36.666Z,101043.00
2019-02-06T15:14:05.557Z,101040.00
2019-02-06T15:17:42.036Z,101030.00
2019-02-06T15:21:17.242Z,101032.00
2019-02-06T15:25:01.946Z,101031.00
2019-02-06T15:28:40.575Z,101028.00
2019-02-06T15:31:56.875Z,101018.00
2019-02-06T15:35:15.122Z,101018.00
2019-02-06T15:38:30.650Z,101023.00
2019-02-06T15:41:49.685Z,101023.00
2019-02-06T15:45:42.564Z,101022.00
2019-02-06T15:49:11.556Z,101022.00
2019-02-06T15:53:01.681Z,101023.00
2019-02-06T15:56:26.759Z,101019.00
2019-02-06T16:00:04.361Z,101019.00
2019-02-06T16:03:32.587Z,101020.00
2019-02-06T16:07:27.349Z,101014.00
2019-02-06T16:11:03.880Z,101017.00
2019-02-06T16:14:24.900Z,101015.00
2019-02-06T16:17:48.602Z,101010.00
2019-02-06T16:21:20.691Z,101028.00
2019-02-06T16:24:21.590Z,101017.00
2019-02-06T16:27:31.846Z,101018.00
2019-02-06T16:31:02.676Z,101021.00
2019-02-06T16:34:22.712Z,101024.00
2019-02-06T16:38:06.238Z,101027.00
2019-02-06T16:41:36.376Z,101009.00
2019-02-06T16:45:04.986Z,101023.00
2019-02-06T16:48:35.266Z,101014.00
2019-02-06T16:51:40.313Z,101010.00
2019-02-06T16:55:07.934Z,101018.00
2019-02-06T16:58:23.998Z,101013.00
2019-02-06T17:01:57.435Z,101010.00
2019-02-06T17:05:11.272Z,101010.00
2019-02-06T17:09:09.920Z,101001.00
2019-02-06T17:12:09.616Z,101001.00
2019-02-06T17:15:29.618Z,101003.00
2019-02-06T17:18:45.417Z,101007.00
2019-02-06T17:22:23.492Z,101017.00
2019-02-06T17:26:12.780Z,101019.00
2019-02-06T17:30:16.363Z,101011.00
2019-02-06T17:33:48.808Z,101009.00
2019-02-06T17:37:24.923Z,101008.00
2019-02-06T17:40:40.696Z,101012.00
2019-02-06T17:44:07.307Z,101013.00
2019-02-06T17:47:13.976Z,101005.00
2019-02-06T17:50:44.442Z,101003.00
2019-02-06T17:54:12.666Z,101002.00
2019-02-06T17:56:44.502Z,101000.00
2019-02-06T17:59:16.092Z,100990.00
2019-02-06T18:01:54.366Z,100985.00
2019-02-06T18:04:45.861Z,100997.00
2019-02-06T18:07:17.591Z,100989.00
2019-02-06T18:09:50.166Z,100991.00
2019-02-06T18:12:26.579Z,100989.00
2019-02-06T18:14:56.655Z,100987.00
2019-02-06T18:17:31.542Z,100991.00
2019-02-06T18:20:03.157Z,100979.00
2019-02-06T18:22:34.994Z,100980.00
2019-02-06T18:25:09.861Z,100971.00
2019-02-06T18:27:41.996Z,100970.00
2019-02-06T18:30:19.258Z,100977.00
2019-02-06T18:32:52.398Z,100969.00
2019-02-06T18:35:25.698Z,100975.00
2019-02-06T18:37:57.412Z,100979.00
2019-02-06T18:40:29.304Z,100974.00
2019-02-06T18:43:03.875Z,100965.00
2019-02-06T18:45:35.323Z,100972.00
2019-02-06T18:48:10.850Z,100967.00
2019-02-06T18:50:43.981Z,100961.00
2019-02-06T18:53:15.949Z,100970.00
2019-02-06T18:55:47.826Z,100969.00
2019-02-06T18:58:19.609Z,100979.00
2019-02-06T19:00:51.185Z,100977.00
2019-02-06T19:03:27.470Z,100974.00
2019-02-06T19:05:59.112Z,100975.00
2019-02-06T19:08:30.959Z,100949.00
2019-02-06T19:11:02.439Z,100969.00
2019-02-06T19:13:34.009Z,100965.00
2019-02-06T19:16:06.146Z,100964.00
2019-02-06T19:18:37.627Z,100960.00
2019-02-06T19:21:09.200Z,100961.00
2019-02-06T19:23:41.100Z,100951.00
2019-02-06T19:26:12.748Z,100945.00
2019-02-06T19:28:45.191Z,100943.00
2019-02-06T19:31:17.073Z,100941.00
2019-02-06T19:33:51.865Z,100942.00
2019-02-06T19:36:24.149Z,100938.00
2019-02-06T19:38:56.371Z,100940.00
2019-02-06T19:41:28.149Z,100938.00
2019-02-06T19:44:00.741Z,100945.00
2019-02-06T19:46:32.676Z,100944.00
2019-02-06T19:49:04.593Z,100934.00
2019-02-06T19:51:36.421Z,100931.00
2019-02-06T19:54:08.163Z,100930.00
2019-02-06T19:56:39.714Z,100938.00
2019-02-06T19:59:11.374Z,100929.00
2019-02-06T20:01:43.462Z,100930.00
2019-02-06T20:04:15.533Z,100934.00
2019-02-06T20:06:47.296Z,100924.00
2019-02-06T20:09:19.034Z,100927.00
2019-02-06T20:11:54.717Z,100926.00
2019-02-06T20:14:28.093Z,100920.00
2019-02-06T20:16:59.922Z,100921.00
2019-02-06T20:19:31.630Z,100916.00
2019-02-06T20:22:03.449Z,100907.00
2019-02-06T20:24:35.952Z,100907.00
2019-02-06T20:27:07.714Z,100902.00
2019-02-06T20:29:39.657Z,100903.00
2019-02-06T20:32:11.587Z,100901.00
2019-02-06T20:34:43.667Z,100901.00
2019-02-06T20:37:16.429Z,100907.00
2019-02-06T20:39:48.103Z,100904.00
2019-02-06T20:42:20.164Z,100889.00
2019-02-06T20:44:51.769Z,100894.00
2019-02-06T20:47:25.124Z,100906.00
2019-02-06T20:49:56.957Z,100891.00
2019-02-06T20:52:29.363Z,100898.00
2019-02-06T20:55:04.278Z,100894.00
2019-02-06T20:57:37.077Z,100886.00
2019-02-06T21:00:14.065Z,100889.00
2019-02-06T21:02:49.508Z,100885.00
2019-02-06T21:05:23.419Z,100876.00
2019-02-06T21:07:55.320Z,100875.00
2019-02-06T21:10:29.351Z,100881.00
2019-02-06T21:13:01.250Z,100866.00
2019-02-06T21:15:34.703Z,100857.00
2019-02-06T21:18:07.382Z,100858.00
2019-02-06T21:20:39.228Z,100852.00
2019-02-06T21:23:10.913Z,100843.00
2019-02-06T21:25:42.874Z,100835.00
2019-02-06T21:28:14.743Z,100826.00
2019-02-06T21:30:47.100Z,100828.00
2019-02-06T21:33:18.859Z,100824.00
2019-02-06T21:35:51.646Z,100823.00
2019-02-06T21:38:23.323Z,100818.00
2019-02-06T21:40:55.114Z,100820.00
2019-02-06T21:43:26.926Z,100828.00
2019-02-06T21:45:59.571Z,100830.00
2019-02-06T21:48:31.118Z,100821.00
2019-02-06T21:51:02.616Z,100814.00
2019-02-06T21:53:34.822Z,100811.00
2019-02-06T21:56:07.039Z,100813.00
2019-02-06T21:58:38.778Z,100799.00
2019-02-06T22:01:10.418Z,100797.00
2019-02-06T22:03:42.190Z,100801.00
2019-02-06T22:06:15.877Z,100801.00
2019-02-06T22:08:47.572Z,100790.00
2019-02-06T22:11:19.497Z,100782.00
2019-02-06T22:13:55.266Z,100784.00
2019-02-06T22:16:24.464Z,100782.00
2019-02-06T22:18:55.978Z,100773.00
2019-02-06T22:21:28.212Z,100789.00
2019-02-06T22:24:03.116Z,100773.00
2019-02-06T22:26:36.383Z,100774.00
2019-02-06T22:29:07.926Z,100773.00
2019-02-06T22:31:40.512Z,100770.00
2019-02-06T22:34:13.638Z,100767.00
2019-02-06T22:36:47.326Z,100764.00
2019-02-06T22:39:19.008Z,100760.00
2019-02-06T22:41:50.641Z,100758.00
2019-02-06T22:44:30.730Z,100764.00
2019-02-06T22:47:02.444Z,100767.00
2019-02-06T22:49:39.182Z,100768.00
2019-02-06T22:52:11.010Z,100766.00
2019-02-06T22:54:42.732Z,100774.00
2019-02-06T22:57:16.228Z,100771.00
2019-02-06T22:59:49.660Z,100767.00
2019-02-06T23:02:21.819Z,100774.00
2019-02-06T23:04:56.956Z,100767.00
2019-02-06T23:07:28.618Z,100772.00
2019-02-06T23:10:00.874Z,100764.00
2019-02-06T23:12:33.122Z,100765.00
2019-02-06T23:15:05.552Z,100759.00
2019-02-06T23:17:37.920Z,100623.00
2019-02-06T23:20:09.856Z,100749.00
2019-02-06T23:22:42.245Z,100753.00
2019-02-06T23:25:14.372Z,100739.00
2019-02-06T23:27:48.855Z,100736.00
2019-02-06T23:30:23.414Z,100732.00
2019-02-06T23:32:55.013Z,100730.00
2019-02-06T23:35:28.602Z,100723.00
2019-02-06T23:38:00.382Z,100718.00
2019-02-06T23:40:32.990Z,100709.00
2019-02-06T23:43:04.564Z,100707.00
2019-02-06T23:45:55.408Z,100706.00
2019-02-06T23:48:26.860Z,100690.00
2019-02-06T23:50:58.424Z,100688.00
2019-02-06T23:53:30.292Z,100684.00
2019-02-06T23:56:01.964Z,100679.00
2019-02-06T23:58:33.548Z,100688.00
